sensor_id;sensor_type;location;lat;lon;timestamp;P1;durP1;ratioP1;P2;durP2;ratioP2
14187;SDS011;7175;51.978;5.330;2023-04-02T00:01:18;61.37;;;57.17;;
14187;SDS011;7175;51.978;5.330;2023-04-02T00:04:03;63.47;;;59.07;;
14187;SDS011;7175;51.978;5.330;2023-04-02T00:06:40;65.77;;;61.30;;
14187;SDS011;7175;51.978;5.330;2023-04-02T00:09:29;59.77;;;55.67;;
14187;SDS011;7175;51.978;5.330;2023-04-02T00:12:12;58.87;;;54.87;;
14187;SDS011;7175;51.978;5.330;2023-04-02T00:14:52;58.20;;;54.30;;
14187;SDS011;7175;51.978;5.330;2023-04-02T00:17:23;59.50;;;55.50;;
14187;SDS011;7175;51.978;5.330;2023-04-02T00:19:53;63.13;;;58.93;;
14187;SDS011;7175;51.978;5.330;2023-04-02T00:22:26;61.83;;;57.67;;
14187;SDS011;7175;51.978;5.330;2023-04-02T00:24:59;60.43;;;56.33;;
14187;SDS011;7175;51.978;5.330;2023-04-02T00:27:34;61.17;;;57.07;;
14187;SDS011;7175;51.978;5.330;2023-04-02T00:30:03;60.67;;;56.67;;
14187;SDS011;7175;51.978;5.330;2023-04-02T00:32:33;64.07;;;59.77;;
14187;SDS011;7175;51.978;5.330;2023-04-02T00:35:03;62.93;;;58.60;;
14187;SDS011;7175;51.978;5.330;2023-04-02T00:37:37;63.53;;;59.13;;
14187;SDS011;7175;51.978;5.330;2023-04-02T00:40:13;64.30;;;59.90;;
14187;SDS011;7175;51.978;5.330;2023-04-02T00:42:47;65.20;;;60.70;;
14187;SDS011;7175;51.978;5.330;2023-04-02T00:45:20;63.53;;;59.17;;
14187;SDS011;7175;51.978;5.330;2023-04-02T00:47:51;66.23;;;61.50;;
14187;SDS011;7175;51.978;5.330;2023-04-02T00:50:21;66.07;;;61.57;;
14187;SDS011;7175;51.978;5.330;2023-04-02T00:52:54;65.70;;;61.23;;
14187;SDS011;7175;51.978;5.330;2023-04-02T00:55:30;65.67;;;61.17;;
14187;SDS011;7175;51.978;5.330;2023-04-02T00:58:02;65.17;;;60.67;;
14187;SDS011;7175;51.978;5.330;2023-04-02T01:00:32;68.40;;;63.80;;
14187;SDS011;7175;51.978;5.330;2023-04-02T01:03:24;66.27;;;61.80;;
14187;SDS011;7175;51.978;5.330;2023-04-02T01:06:01;64.83;;;59.77;;
14187;SDS011;7175;51.978;5.330;2023-04-02T01:08:43;62.50;;;58.20;;
14187;SDS011;7175;51.978;5.330;2023-04-02T01:11:29;61.93;;;57.63;;
14187;SDS011;7175;51.978;5.330;2023-04-02T01:14:11;59.70;;;55.60;;
14187;SDS011;7175;51.978;5.330;2023-04-02T01:16:48;58.80;;;54.80;;
14187;SDS011;7175;51.978;5.330;2023-04-02T01:19:38;60.03;;;55.93;;
14187;SDS011;7175;51.978;5.330;2023-04-02T01:22:25;58.07;;;54.17;;
14187;SDS011;7175;51.978;5.330;2023-04-02T01:25:01;54.00;;;50.33;;
14187;SDS011;7175;51.978;5.330;2023-04-02T01:27:33;54.30;;;50.60;;
14187;SDS011;7175;51.978;5.330;2023-04-02T01:30:11;54.90;;;51.20;;
14187;SDS011;7175;51.978;5.330;2023-04-02T01:32:41;55.33;;;51.63;;
14187;SDS011;7175;51.978;5.330;2023-04-02T01:35:11;55.43;;;51.73;;
14187;SDS011;7175;51.978;5.330;2023-04-02T01:37:41;52.10;;;48.60;;
14187;SDS011;7175;51.978;5.330;2023-04-02T01:40:21;52.83;;;49.33;;
14187;SDS011;7175;51.978;5.330;2023-04-02T01:42:59;53.67;;;50.10;;
14187;SDS011;7175;51.978;5.330;2023-04-02T01:45:36;53.43;;;49.90;;
14187;SDS011;7175;51.978;5.330;2023-04-02T01:48:05;54.13;;;50.43;;
14187;SDS011;7175;51.978;5.330;2023-04-02T01:50:40;54.63;;;50.93;;
14187;SDS011;7175;51.978;5.330;2023-04-02T01:53:12;53.80;;;50.10;;
14187;SDS011;7175;51.978;5.330;2023-04-02T01:55:44;54.37;;;50.70;;
14187;SDS011;7175;51.978;5.330;2023-04-02T01:58:16;57.03;;;53.13;;
14187;SDS011;7175;51.978;5.330;2023-04-02T02:00:48;54.90;;;51.20;;
14187;SDS011;7175;51.978;5.330;2023-04-02T02:03:20;54.13;;;50.43;;
14187;SDS011;7175;51.978;5.330;2023-04-02T02:05:49;53.33;;;49.73;;
14187;SDS011;7175;51.978;5.330;2023-04-02T02:08:22;47.20;;;44.00;;
14187;SDS011;7175;51.978;5.330;2023-04-02T02:10:58;46.53;;;43.33;;
14187;SDS011;7175;51.978;5.330;2023-04-02T02:13:27;49.40;;;46.00;;
14187;SDS011;7175;51.978;5.330;2023-04-02T02:15:59;50.80;;;47.40;;
14187;SDS011;7175;51.978;5.330;2023-04-02T02:18:29;52.40;;;48.90;;
14187;SDS011;7175;51.978;5.330;2023-04-02T02:20:59;52.60;;;49.10;;
14187;SDS011;7175;51.978;5.330;2023-04-02T02:23:31;51.70;;;48.30;;
14187;SDS011;7175;51.978;5.330;2023-04-02T02:26:00;50.30;;;47.00;;
14187;SDS011;7175;51.978;5.330;2023-04-02T02:28:32;49.40;;;46.10;;
14187;SDS011;7175;51.978;5.330;2023-04-02T02:31:05;46.37;;;43.27;;
14187;SDS011;7175;51.978;5.330;2023-04-02T02:33:39;46.70;;;43.60;;
14187;SDS011;7175;51.978;5.330;2023-04-02T02:36:12;47.83;;;44.63;;
14187;SDS011;7175;51.978;5.330;2023-04-02T02:38:46;46.40;;;43.30;;
14187;SDS011;7175;51.978;5.330;2023-04-02T02:41:21;46.40;;;43.30;;
14187;SDS011;7175;51.978;5.330;2023-04-02T02:43:56;46.60;;;43.50;;
14187;SDS011;7175;51.978;5.330;2023-04-02T02:46:29;49.07;;;45.87;;
14187;SDS011;7175;51.978;5.330;2023-04-02T02:49:00;48.97;;;45.73;;
14187;SDS011;7175;51.978;5.330;2023-04-02T02:51:38;50.57;;;47.27;;
14187;SDS011;7175;51.978;5.330;2023-04-02T02:54:10;50.53;;;47.23;;
14187;SDS011;7175;51.978;5.330;2023-04-02T02:56:41;49.87;;;46.57;;
14187;SDS011;7175;51.978;5.330;2023-04-02T02:59:15;49.43;;;46.23;;
14187;SDS011;7175;51.978;5.330;2023-04-02T03:01:46;51.73;;;48.33;;
14187;SDS011;7175;51.978;5.330;2023-04-02T03:04:18;52.07;;;48.67;;
14187;SDS011;7175;51.978;5.330;2023-04-02T03:06:49;49.40;;;46.10;;
14187;SDS011;7175;51.978;5.330;2023-04-02T03:09:21;50.80;;;47.40;;
14187;SDS011;7175;51.978;5.330;2023-04-02T03:12:01;51.47;;;48.07;;
14187;SDS011;7175;51.978;5.330;2023-04-02T03:14:35;53.77;;;50.27;;
14187;SDS011;7175;51.978;5.330;2023-04-02T03:17:11;56.80;;;53.10;;
14187;SDS011;7175;51.978;5.330;2023-04-02T03:19:46;57.00;;;53.20;;
14187;SDS011;7175;51.978;5.330;2023-04-02T03:22:20;56.57;;;52.77;;
14187;SDS011;7175;51.978;5.330;2023-04-02T03:24:57;54.00;;;50.40;;
14187;SDS011;7175;51.978;5.330;2023-04-02T03:27:29;53.47;;;49.90;;
14187;SDS011;7175;51.978;5.330;2023-04-02T03:30:04;52.37;;;48.87;;
14187;SDS011;7175;51.978;5.330;2023-04-02T03:32:50;50.57;;;47.17;;
14187;SDS011;7175;51.978;5.330;2023-04-02T03:35:23;51.97;;;48.47;;
14187;SDS011;7175;51.978;5.330;2023-04-02T03:38:00;52.47;;;48.97;;
14187;SDS011;7175;51.978;5.330;2023-04-02T03:40:34;50.93;;;47.63;;
14187;SDS011;7175;51.978;5.330;2023-04-02T03:43:11;50.83;;;47.53;;
14187;SDS011;7175;51.978;5.330;2023-04-02T03:45:47;49.00;;;45.80;;
14187;SDS011;7175;51.978;5.330;2023-04-02T03:48:22;53.97;;;50.47;;
14187;SDS011;7175;51.978;5.330;2023-04-02T03:50:55;55.30;;;51.70;;
14187;SDS011;7175;51.978;5.330;2023-04-02T03:53:26;57.03;;;53.33;;
14187;SDS011;7175;51.978;5.330;2023-04-02T03:55:57;57.17;;;53.47;;
14187;SDS011;7175;51.978;5.330;2023-04-02T03:58:27;57.73;;;54.03;;
14187;SDS011;7175;51.978;5.330;2023-04-02T04:01:03;54.07;;;50.57;;
14187;SDS011;7175;51.978;5.330;2023-04-02T04:03:41;50.57;;;47.27;;
14187;SDS011;7175;51.978;5.330;2023-04-02T04:06:14;52.87;;;49.37;;
14187;SDS011;7175;51.978;5.330;2023-04-02T04:08:49;53.63;;;50.13;;
14187;SDS011;7175;51.978;5.330;2023-04-02T04:11:22;52.43;;;49.03;;
14187;SDS011;7175;51.978;5.330;2023-04-02T04:13:55;54.37;;;50.77;;
14187;SDS011;7175;51.978;5.330;2023-04-02T04:16:28;55.37;;;51.77;;
14187;SDS011;7175;51.978;5.330;2023-04-02T04:19:03;53.10;;;49.63;;
14187;SDS011;7175;51.978;5.330;2023-04-02T04:21:37;51.50;;;48.10;;
14187;SDS011;7175;51.978;5.330;2023-04-02T04:24:14;51.07;;;47.77;;
14187;SDS011;7175;51.978;5.330;2023-04-02T04:26:49;51.17;;;47.87;;
14187;SDS011;7175;51.978;5.330;2023-04-02T04:29:29;48.00;;;44.90;;
14187;SDS011;7175;51.978;5.330;2023-04-02T04:32:12;49.60;;;46.40;;
14187;SDS011;7175;51.978;5.330;2023-04-02T04:34:55;45.87;;;42.87;;
14187;SDS011;7175;51.978;5.330;2023-04-02T04:37:30;45.07;;;42.17;;
14187;SDS011;7175;51.978;5.330;2023-04-02T04:40:04;43.63;;;40.80;;
14187;SDS011;7175;51.978;5.330;2023-04-02T04:42:39;42.77;;;39.97;;
14187;SDS011;7175;51.978;5.330;2023-04-02T04:45:12;36.80;;;34.30;;
14187;SDS011;7175;51.978;5.330;2023-04-02T04:47:50;36.10;;;33.53;;
14187;SDS011;7175;51.978;5.330;2023-04-02T04:50:27;33.77;;;31.47;;
14187;SDS011;7175;51.978;5.330;2023-04-02T04:53:03;35.83;;;33.33;;
14187;SDS011;7175;51.978;5.330;2023-04-02T04:55:36;39.00;;;36.40;;
14187;SDS011;7175;51.978;5.330;2023-04-02T04:58:10;40.67;;;37.97;;
14187;SDS011;7175;51.978;5.330;2023-04-02T05:00:47;37.57;;;34.97;;
14187;SDS011;7175;51.978;5.330;2023-04-02T05:03:25;38.20;;;35.60;;
14187;SDS011;7175;51.978;5.330;2023-04-02T05:06:02;37.07;;;34.57;;
14187;SDS011;7175;51.978;5.330;2023-04-02T05:08:37;39.20;;;36.30;;
14187;SDS011;7175;51.978;5.330;2023-04-02T05:11:09;36.33;;;33.73;;
14187;SDS011;7175;51.978;5.330;2023-04-02T05:13:47;33.97;;;31.47;;
14187;SDS011;7175;51.978;5.330;2023-04-02T05:16:22;34.37;;;31.87;;
14187;SDS011;7175;51.978;5.330;2023-04-02T05:18:57;33.80;;;31.30;;
14187;SDS011;7175;51.978;5.330;2023-04-02T05:21:34;28.40;;;26.30;;
14187;SDS011;7175;51.978;5.330;2023-04-02T05:24:17;27.50;;;25.40;;
14187;SDS011;7175;51.978;5.330;2023-04-02T05:27:08;27.20;;;25.10;;
14187;SDS011;7175;51.978;5.330;2023-04-02T05:29:49;24.20;;;22.30;;
14187;SDS011;7175;51.978;5.330;2023-04-02T05:32:24;23.20;;;21.40;;
14187;SDS011;7175;51.978;5.330;2023-04-02T05:34:58;24.33;;;22.40;;
14187;SDS011;7175;51.978;5.330;2023-04-02T05:37:32;23.33;;;21.40;;
14187;SDS011;7175;51.978;5.330;2023-04-02T05:40:04;22.50;;;20.80;;
14187;SDS011;7175;51.978;5.330;2023-04-02T05:42:42;22.43;;;20.63;;
14187;SDS011;7175;51.978;5.330;2023-04-02T05:45:18;23.73;;;21.83;;
14187;SDS011;7175;51.978;5.330;2023-04-02T05:47:51;23.60;;;21.70;;
14187;SDS011;7175;51.978;5.330;2023-04-02T05:50:26;22.93;;;21.13;;
14187;SDS011;7175;51.978;5.330;2023-04-02T05:52:59;23.70;;;21.80;;
14187;SDS011;7175;51.978;5.330;2023-04-02T05:55:34;24.60;;;22.70;;
14187;SDS011;7175;51.978;5.330;2023-04-02T05:58:13;26.17;;;24.17;;
14187;SDS011;7175;51.978;5.330;2023-04-02T06:01:03;26.00;;;24.00;;
14187;SDS011;7175;51.978;5.330;2023-04-02T06:03:42;25.20;;;23.20;;
14187;SDS011;7175;51.978;5.330;2023-04-02T06:06:18;25.10;;;23.10;;
14187;SDS011;7175;51.978;5.330;2023-04-02T06:08:56;24.83;;;22.83;;
14187;SDS011;7175;51.978;5.330;2023-04-02T06:11:29;24.90;;;22.90;;
14187;SDS011;7175;51.978;5.330;2023-04-02T06:13:59;26.17;;;24.10;;
14187;SDS011;7175;51.978;5.330;2023-04-02T06:16:30;26.10;;;24.10;;
14187;SDS011;7175;51.978;5.330;2023-04-02T06:19:00;25.43;;;23.43;;
14187;SDS011;7175;51.978;5.330;2023-04-02T06:21:29;26.90;;;24.80;;
14187;SDS011;7175;51.978;5.330;2023-04-02T06:24:00;26.40;;;24.30;;
14187;SDS011;7175;51.978;5.330;2023-04-02T06:26:32;26.00;;;23.90;;
14187;SDS011;7175;51.978;5.330;2023-04-02T06:29:04;26.17;;;24.07;;
14187;SDS011;7175;51.978;5.330;2023-04-02T06:31:39;23.90;;;22.00;;
14187;SDS011;7175;51.978;5.330;2023-04-02T06:34:15;23.90;;;22.00;;
14187;SDS011;7175;51.978;5.330;2023-04-02T06:36:46;24.93;;;22.93;;
14187;SDS011;7175;51.978;5.330;2023-04-02T06:39:18;24.30;;;22.33;;
14187;SDS011;7175;51.978;5.330;2023-04-02T06:41:52;24.00;;;22.10;;
14187;SDS011;7175;51.978;5.330;2023-04-02T06:44:24;24.27;;;22.37;;
14187;SDS011;7175;51.978;5.330;2023-04-02T06:46:57;23.97;;;22.07;;
14187;SDS011;7175;51.978;5.330;2023-04-02T06:49:29;23.70;;;21.80;;
14187;SDS011;7175;51.978;5.330;2023-04-02T06:52:03;22.60;;;20.80;;
14187;SDS011;7175;51.978;5.330;2023-04-02T06:54:39;23.10;;;21.20;;
14187;SDS011;7175;51.978;5.330;2023-04-02T06:57:08;22.90;;;21.10;;
14187;SDS011;7175;51.978;5.330;2023-04-02T06:59:37;22.10;;;20.30;;
14187;SDS011;7175;51.978;5.330;2023-04-02T07:02:13;22.57;;;20.77;;
14187;SDS011;7175;51.978;5.330;2023-04-02T07:04:51;23.20;;;21.30;;
14187;SDS011;7175;51.978;5.330;2023-04-02T07:07:22;24.60;;;22.60;;
14187;SDS011;7175;51.978;5.330;2023-04-02T07:09:52;23.50;;;21.60;;
14187;SDS011;7175;51.978;5.330;2023-04-02T07:12:22;22.30;;;20.50;;
14187;SDS011;7175;51.978;5.330;2023-04-02T07:14:51;22.40;;;20.60;;
14187;SDS011;7175;51.978;5.330;2023-04-02T07:17:19;21.90;;;20.10;;
14187;SDS011;7175;51.978;5.330;2023-04-02T07:19:48;22.50;;;20.70;;
14187;SDS011;7175;51.978;5.330;2023-04-02T07:22:17;22.10;;;20.30;;
14187;SDS011;7175;51.978;5.330;2023-04-02T07:24:46;22.80;;;20.90;;
14187;SDS011;7175;51.978;5.330;2023-04-02T07:27:16;30.87;;;21.30;;
14187;SDS011;7175;51.978;5.330;2023-04-02T07:29:44;21.87;;;20.07;;
14187;SDS011;7175;51.978;5.330;2023-04-02T07:32:13;22.10;;;20.30;;
14187;SDS011;7175;51.978;5.330;2023-04-02T07:34:41;22.43;;;20.63;;
14187;SDS011;7175;51.978;5.330;2023-04-02T07:37:11;21.97;;;20.17;;
14187;SDS011;7175;51.978;5.330;2023-04-02T07:39:40;22.10;;;20.30;;
14187;SDS011;7175;51.978;5.330;2023-04-02T07:42:09;22.73;;;20.83;;
14187;SDS011;7175;51.978;5.330;2023-04-02T07:44:39;22.37;;;20.57;;
14187;SDS011;7175;51.978;5.330;2023-04-02T07:47:07;22.40;;;20.60;;
14187;SDS011;7175;51.978;5.330;2023-04-02T07:49:36;22.30;;;20.50;;
14187;SDS011;7175;51.978;5.330;2023-04-02T07:52:04;22.30;;;20.60;;
14187;SDS011;7175;51.978;5.330;2023-04-02T07:54:33;22.30;;;20.50;;
14187;SDS011;7175;51.978;5.330;2023-04-02T07:57:03;22.50;;;20.70;;
14187;SDS011;7175;51.978;5.330;2023-04-02T07:59:32;21.80;;;20.10;;
14187;SDS011;7175;51.978;5.330;2023-04-02T08:02:02;22.00;;;20.20;;
14187;SDS011;7175;51.978;5.330;2023-04-02T08:04:31;22.60;;;20.80;;
14187;SDS011;7175;51.978;5.330;2023-04-02T08:07:00;23.43;;;21.63;;
14187;SDS011;7175;51.978;5.330;2023-04-02T08:09:29;22.30;;;20.50;;
14187;SDS011;7175;51.978;5.330;2023-04-02T08:11:58;23.00;;;21.20;;
14187;SDS011;7175;51.978;5.330;2023-04-02T08:14:27;25.40;;;23.50;;
14187;SDS011;7175;51.978;5.330;2023-04-02T08:16:56;23.40;;;21.50;;
14187;SDS011;7175;51.978;5.330;2023-04-02T08:19:26;22.70;;;20.90;;
14187;SDS011;7175;51.978;5.330;2023-04-02T08:21:55;22.30;;;20.50;;
14187;SDS011;7175;51.978;5.330;2023-04-02T08:24:23;23.30;;;21.50;;
14187;SDS011;7175;51.978;5.330;2023-04-02T08:26:52;23.20;;;21.40;;
14187;SDS011;7175;51.978;5.330;2023-04-02T08:29:21;22.50;;;20.70;;
14187;SDS011;7175;51.978;5.330;2023-04-02T08:31:49;21.67;;;19.97;;
14187;SDS011;7175;51.978;5.330;2023-04-02T08:34:19;21.77;;;19.97;;
14187;SDS011;7175;51.978;5.330;2023-04-02T08:36:49;21.50;;;19.80;;
14187;SDS011;7175;51.978;5.330;2023-04-02T08:39:22;21.47;;;19.77;;
14187;SDS011;7175;51.978;5.330;2023-04-02T08:41:54;21.40;;;19.70;;
14187;SDS011;7175;51.978;5.330;2023-04-02T08:44:38;21.20;;;19.50;;
14187;SDS011;7175;51.978;5.330;2023-04-02T08:47:12;21.97;;;20.27;;
14187;SDS011;7175;51.978;5.330;2023-04-02T08:49:47;21.07;;;19.37;;
14187;SDS011;7175;51.978;5.330;2023-04-02T08:52:22;21.83;;;20.13;;
14187;SDS011;7175;51.978;5.330;2023-04-02T08:54:52;20.63;;;19.03;;
14187;SDS011;7175;51.978;5.330;2023-04-02T08:57:26;20.80;;;19.20;;
14187;SDS011;7175;51.978;5.330;2023-04-02T09:00:04;19.90;;;18.40;;
14187;SDS011;7175;51.978;5.330;2023-04-02T09:02:43;19.67;;;18.17;;
14187;SDS011;7175;51.978;5.330;2023-04-02T09:05:17;20.20;;;18.60;;
14187;SDS011;7175;51.978;5.330;2023-04-02T09:07:51;19.83;;;18.23;;
14187;SDS011;7175;51.978;5.330;2023-04-02T09:10:24;20.33;;;18.73;;
14187;SDS011;7175;51.978;5.330;2023-04-02T09:13:02;19.97;;;18.37;;
14187;SDS011;7175;51.978;5.330;2023-04-02T09:15:41;20.03;;;18.43;;
14187;SDS011;7175;51.978;5.330;2023-04-02T09:18:12;19.80;;;18.30;;
14187;SDS011;7175;51.978;5.330;2023-04-02T09:20:42;21.07;;;19.43;;
14187;SDS011;7175;51.978;5.330;2023-04-02T09:23:13;19.40;;;17.90;;
14187;SDS011;7175;51.978;5.330;2023-04-02T09:25:46;19.53;;;18.03;;
14187;SDS011;7175;51.978;5.330;2023-04-02T09:28:29;19.23;;;17.83;;
14187;SDS011;7175;51.978;5.330;2023-04-02T09:31:03;19.10;;;17.70;;
14187;SDS011;7175;51.978;5.330;2023-04-02T09:33:39;19.77;;;18.27;;
14187;SDS011;7175;51.978;5.330;2023-04-02T09:36:24;20.03;;;18.53;;
14187;SDS011;7175;51.978;5.330;2023-04-02T09:39:02;20.00;;;18.50;;
14187;SDS011;7175;51.978;5.330;2023-04-02T09:41:34;20.20;;;18.70;;
14187;SDS011;7175;51.978;5.330;2023-04-02T09:44:10;19.80;;;18.30;;
14187;SDS011;7175;51.978;5.330;2023-04-02T09:46:48;20.40;;;18.80;;
14187;SDS011;7175;51.978;5.330;2023-04-02T09:49:20;20.70;;;19.10;;
14187;SDS011;7175;51.978;5.330;2023-04-02T09:55:10;20.73;;;19.23;;
14187;SDS011;7175;51.978;5.330;2023-04-02T09:57:50;22.00;;;20.20;;
14187;SDS011;7175;51.978;5.330;2023-04-02T10:00:32;20.83;;;19.33;;
14187;SDS011;7175;51.978;5.330;2023-04-02T10:03:03;20.43;;;18.93;;
14187;SDS011;7175;51.978;5.330;2023-04-02T10:05:33;20.37;;;18.87;;
14187;SDS011;7175;51.978;5.330;2023-04-02T10:08:11;20.23;;;18.73;;
14187;SDS011;7175;51.978;5.330;2023-04-02T10:10:47;19.93;;;18.43;;
14187;SDS011;7175;51.978;5.330;2023-04-02T10:13:19;20.37;;;18.83;;
14187;SDS011;7175;51.978;5.330;2023-04-02T10:15:53;20.50;;;18.90;;
14187;SDS011;7175;51.978;5.330;2023-04-02T10:21:14;20.63;;;19.13;;
14187;SDS011;7175;51.978;5.330;2023-04-02T10:23:44;20.57;;;18.97;;
14187;SDS011;7175;51.978;5.330;2023-04-02T10:29:13;20.10;;;18.60;;
14187;SDS011;7175;51.978;5.330;2023-04-02T10:31:55;20.93;;;19.23;;
14187;SDS011;7175;51.978;5.330;2023-04-02T10:34:32;20.97;;;19.20;;
14187;SDS011;7175;51.978;5.330;2023-04-02T10:37:12;20.77;;;19.07;;
14187;SDS011;7175;51.978;5.330;2023-04-02T10:39:55;21.17;;;19.47;;
14187;SDS011;7175;51.978;5.330;2023-04-02T10:42:29;20.60;;;19.00;;
14187;SDS011;7175;51.978;5.330;2023-04-02T10:45:04;19.97;;;18.37;;
14187;SDS011;7175;51.978;5.330;2023-04-02T10:47:46;20.43;;;18.83;;
14187;SDS011;7175;51.978;5.330;2023-04-02T10:50:25;20.30;;;18.70;;
14187;SDS011;7175;51.978;5.330;2023-04-02T10:53:00;20.77;;;19.17;;
14187;SDS011;7175;51.978;5.330;2023-04-02T10:55:39;20.33;;;18.73;;
14187;SDS011;7175;51.978;5.330;2023-04-02T10:58:18;20.07;;;18.47;;
14187;SDS011;7175;51.978;5.330;2023-04-02T11:00:52;20.13;;;18.53;;
14187;SDS011;7175;51.978;5.330;2023-04-02T11:03:27;19.67;;;18.17;;
14187;SDS011;7175;51.978;5.330;2023-04-02T11:06:01;19.70;;;18.20;;
14187;SDS011;7175;51.978;5.330;2023-04-02T11:08:38;19.50;;;17.90;;
14187;SDS011;7175;51.978;5.330;2023-04-02T11:11:09;20.50;;;18.80;;
14187;SDS011;7175;51.978;5.330;2023-04-02T11:13:46;19.80;;;18.20;;
14187;SDS011;7175;51.978;5.330;2023-04-02T11:16:20;19.80;;;18.20;;
14187;SDS011;7175;51.978;5.330;2023-04-02T11:21:50;19.60;;;18.00;;
14187;SDS011;7175;51.978;5.330;2023-04-02T11:24:30;19.73;;;18.13;;
14187;SDS011;7175;51.978;5.330;2023-04-02T11:27:04;20.03;;;18.43;;
14187;SDS011;7175;51.978;5.330;2023-04-02T11:29:36;19.67;;;18.07;;
14187;SDS011;7175;51.978;5.330;2023-04-02T11:32:26;19.77;;;18.17;;
14187;SDS011;7175;51.978;5.330;2023-04-02T11:41:12;19.37;;;17.87;;
14187;SDS011;7175;51.978;5.330;2023-04-02T11:43:50;19.20;;;17.70;;
14187;SDS011;7175;51.978;5.330;2023-04-02T11:49:36;19.37;;;17.87;;
14187;SDS011;7175;51.978;5.330;2023-04-02T11:52:20;19.03;;;17.53;;
14187;SDS011;7175;51.978;5.330;2023-04-02T11:54:59;20.47;;;18.80;;
14187;SDS011;7175;51.978;5.330;2023-04-02T11:57:36;19.00;;;17.50;;
14187;SDS011;7175;51.978;5.330;2023-04-02T12:00:27;18.70;;;17.20;;
14187;SDS011;7175;51.978;5.330;2023-04-02T12:03:24;18.60;;;17.10;;
14187;SDS011;7175;51.978;5.330;2023-04-02T12:06:16;18.73;;;17.23;;
14187;SDS011;7175;51.978;5.330;2023-04-02T12:08:53;19.23;;;17.70;;
14187;SDS011;7175;51.978;5.330;2023-04-02T12:11:31;19.07;;;17.57;;
14187;SDS011;7175;51.978;5.330;2023-04-02T12:14:02;18.77;;;17.27;;
14187;SDS011;7175;51.978;5.330;2023-04-02T12:16:54;19.10;;;17.60;;
14187;SDS011;7175;51.978;5.330;2023-04-02T12:19:23;19.20;;;17.70;;
14187;SDS011;7175;51.978;5.330;2023-04-02T12:21:57;18.90;;;17.40;;
14187;SDS011;7175;51.978;5.330;2023-04-02T12:24:27;19.20;;;17.70;;
14187;SDS011;7175;51.978;5.330;2023-04-02T12:27:06;19.27;;;17.77;;
14187;SDS011;7175;51.978;5.330;2023-04-02T12:29:41;19.50;;;17.97;;
14187;SDS011;7175;51.978;5.330;2023-04-02T12:34:56;19.00;;;17.50;;
14187;SDS011;7175;51.978;5.330;2023-04-02T12:37:28;19.60;;;18.00;;
14187;SDS011;7175;51.978;5.330;2023-04-02T12:39:58;20.57;;;18.87;;
14187;SDS011;7175;51.978;5.330;2023-04-02T12:42:30;18.97;;;17.47;;
14187;SDS011;7175;51.978;5.330;2023-04-02T12:45:00;20.60;;;19.00;;
14187;SDS011;7175;51.978;5.330;2023-04-02T12:47:30;19.17;;;17.67;;
14187;SDS011;7175;51.978;5.330;2023-04-02T12:49:59;19.10;;;17.60;;
14187;SDS011;7175;51.978;5.330;2023-04-02T12:52:30;18.70;;;17.20;;
14187;SDS011;7175;51.978;5.330;2023-04-02T12:54:59;18.30;;;16.90;;
14187;SDS011;7175;51.978;5.330;2023-04-02T12:57:34;18.50;;;17.00;;
14187;SDS011;7175;51.978;5.330;2023-04-02T13:03:00;18.60;;;17.10;;
14187;SDS011;7175;51.978;5.330;2023-04-02T13:05:54;18.60;;;17.10;;
14187;SDS011;7175;51.978;5.330;2023-04-02T13:08:25;18.37;;;16.87;;
14187;SDS011;7175;51.978;5.330;2023-04-02T13:10:56;18.87;;;17.23;;
14187;SDS011;7175;51.978;5.330;2023-04-02T13:13:28;18.60;;;17.10;;
14187;SDS011;7175;51.978;5.330;2023-04-02T13:16:00;19.70;;;18.00;;
14187;SDS011;7175;51.978;5.330;2023-04-02T13:18:35;18.67;;;17.17;;
14187;SDS011;7175;51.978;5.330;2023-04-02T13:21:04;18.63;;;17.13;;
14187;SDS011;7175;51.978;5.330;2023-04-02T13:23:35;18.60;;;17.10;;
14187;SDS011;7175;51.978;5.330;2023-04-02T13:28:55;18.67;;;17.17;;
14187;SDS011;7175;51.978;5.330;2023-04-02T13:31:24;18.57;;;17.07;;
14187;SDS011;7175;51.978;5.330;2023-04-02T13:33:53;18.47;;;16.97;;
14187;SDS011;7175;51.978;5.330;2023-04-02T13:36:22;17.93;;;16.43;;
14187;SDS011;7175;51.978;5.330;2023-04-02T13:38:52;18.17;;;16.67;;
14187;SDS011;7175;51.978;5.330;2023-04-02T13:41:21;18.47;;;16.97;;
14187;SDS011;7175;51.978;5.330;2023-04-02T13:43:53;18.10;;;16.60;;
14187;SDS011;7175;51.978;5.330;2023-04-02T13:46:23;18.43;;;16.93;;
14187;SDS011;7175;51.978;5.330;2023-04-02T13:48:53;18.67;;;17.17;;
14187;SDS011;7175;51.978;5.330;2023-04-02T13:51:23;18.90;;;17.40;;
14187;SDS011;7175;51.978;5.330;2023-04-02T13:54:00;19.20;;;17.70;;
14187;SDS011;7175;51.978;5.330;2023-04-02T13:56:29;19.10;;;17.60;;
14187;SDS011;7175;51.978;5.330;2023-04-02T13:58:58;19.10;;;17.60;;
14187;SDS011;7175;51.978;5.330;2023-04-02T14:01:27;19.40;;;17.80;;
14187;SDS011;7175;51.978;5.330;2023-04-02T14:03:57;19.10;;;17.50;;
14187;SDS011;7175;51.978;5.330;2023-04-02T14:06:29;18.30;;;16.80;;
14187;SDS011;7175;51.978;5.330;2023-04-02T14:09:10;18.50;;;17.00;;
14187;SDS011;7175;51.978;5.330;2023-04-02T14:11:49;19.47;;;17.87;;
14187;SDS011;7175;51.978;5.330;2023-04-02T14:14:27;19.30;;;17.70;;
14187;SDS011;7175;51.978;5.330;2023-04-02T14:17:11;19.10;;;17.50;;
14187;SDS011;7175;51.978;5.330;2023-04-02T14:19:53;19.43;;;17.83;;
14187;SDS011;7175;51.978;5.330;2023-04-02T14:22:33;18.80;;;17.30;;
14187;SDS011;7175;51.978;5.330;2023-04-02T14:25:15;18.87;;;17.37;;
14187;SDS011;7175;51.978;5.330;2023-04-02T14:27:54;19.20;;;17.70;;
14187;SDS011;7175;51.978;5.330;2023-04-02T14:30:35;19.47;;;17.97;;
14187;SDS011;7175;51.978;5.330;2023-04-02T14:33:14;18.83;;;17.33;;
14187;SDS011;7175;51.978;5.330;2023-04-02T14:35:53;19.03;;;17.53;;
14187;SDS011;7175;51.978;5.330;2023-04-02T14:38:32;20.00;;;18.40;;
14187;SDS011;7175;51.978;5.330;2023-04-02T14:41:12;19.63;;;18.13;;
14187;SDS011;7175;51.978;5.330;2023-04-02T14:43:44;19.43;;;17.93;;
14187;SDS011;7175;51.978;5.330;2023-04-02T14:46:23;19.17;;;17.67;;
14187;SDS011;7175;51.978;5.330;2023-04-02T14:48:54;19.23;;;17.73;;
14187;SDS011;7175;51.978;5.330;2023-04-02T14:51:26;19.07;;;17.57;;
14187;SDS011;7175;51.978;5.330;2023-04-02T14:53:59;19.40;;;17.90;;
14187;SDS011;7175;51.978;5.330;2023-04-02T14:56:37;19.17;;;17.70;;
14187;SDS011;7175;51.978;5.330;2023-04-02T14:59:27;19.27;;;17.77;;
14187;SDS011;7175;51.978;5.330;2023-04-02T15:02:00;19.83;;;18.33;;
14187;SDS011;7175;51.978;5.330;2023-04-02T15:04:36;19.40;;;17.90;;
14187;SDS011;7175;51.978;5.330;2023-04-02T15:07:11;19.40;;;17.90;;
14187;SDS011;7175;51.978;5.330;2023-04-02T15:09:45;19.43;;;17.93;;
14187;SDS011;7175;51.978;5.330;2023-04-02T15:12:22;19.90;;;18.40;;
14187;SDS011;7175;51.978;5.330;2023-04-02T15:14:57;19.53;;;18.03;;
14187;SDS011;7175;51.978;5.330;2023-04-02T15:17:31;19.73;;;18.23;;
14187;SDS011;7175;51.978;5.330;2023-04-02T15:20:01;19.07;;;17.57;;
14187;SDS011;7175;51.978;5.330;2023-04-02T15:22:39;19.37;;;17.87;;
14187;SDS011;7175;51.978;5.330;2023-04-02T15:25:16;19.57;;;18.07;;
14187;SDS011;7175;51.978;5.330;2023-04-02T15:27:56;19.47;;;17.97;;
14187;SDS011;7175;51.978;5.330;2023-04-02T15:30:33;19.60;;;18.10;;
14187;SDS011;7175;51.978;5.330;2023-04-02T15:33:21;19.67;;;18.17;;
14187;SDS011;7175;51.978;5.330;2023-04-02T15:39:00;19.10;;;17.60;;
14187;SDS011;7175;51.978;5.330;2023-04-02T15:41:39;18.97;;;17.47;;
14187;SDS011;7175;51.978;5.330;2023-04-02T15:44:15;18.97;;;17.47;;
14187;SDS011;7175;51.978;5.330;2023-04-02T15:46:45;19.33;;;17.83;;
14187;SDS011;7175;51.978;5.330;2023-04-02T15:49:27;19.10;;;17.60;;